createdAt,value
2022-10-23T00:03:26.547Z,8.07
2022-10-23T00:08:28.677Z,7.93
2022-10-23T00:13:31.007Z,7.76
2022-10-23T00:18:33.850Z,7.96
2022-10-23T00:23:36.109Z,8.12
2022-10-23T00:28:38.749Z,8.29
2022-10-23T00:33:42.053Z,8.22
2022-10-23T00:38:45.153Z,8.23
2022-10-23T00:44:01.615Z,8.12
2022-10-23T00:49:05.690Z,8.31
2022-10-23T00:54:23.542Z,8.25
2022-10-23T00:59:27.772Z,8.19
2022-10-23T01:04:30.978Z,8.18
2022-10-23T01:09:42.606Z,8.21
2022-10-23T01:15:03.163Z,8.23
2022-10-23T01:20:25.634Z,8.21
2022-10-23T01:25:52.410Z,8.17
2022-10-23T01:30:58.364Z,8.21
2022-10-23T01:36:12.593Z,8.13
2022-10-23T01:41:21.491Z,8.28
2022-10-23T01:46:26.300Z,8.14
2022-10-23T01:51:31.336Z,8.27
2022-10-23T01:56:42.246Z,8.28
2022-10-23T02:01:48.849Z,8.23
2022-10-23T02:06:51.450Z,8.03
2022-10-23T02:12:25.253Z,8.11
2022-10-23T02:18:12.120Z,8.07
2022-10-23T02:23:28.053Z,8.40
2022-10-23T02:28:40.657Z,8.37
2022-10-23T02:33:47.251Z,8.34
2022-10-23T02:38:49.734Z,8.55
2022-10-23T02:44:10.358Z,8.58
2022-10-23T02:49:20.505Z,8.59
2022-10-23T02:54:42.035Z,8.39
2022-10-23T02:59:47.702Z,8.45
2022-10-23T03:04:54.148Z,8.52
2022-10-23T03:09:56.607Z,8.75
2022-10-23T03:14:58.967Z,8.50
2022-10-23T03:20:01.141Z,8.78
2022-10-23T03:25:03.658Z,10.66
2022-10-23T03:30:08.309Z,12.59
2022-10-23T03:35:13.121Z,14.00
2022-10-23T03:40:15.562Z,14.59
2022-10-23T03:45:17.902Z,14.82
2022-10-23T03:50:20.677Z,15.36
2022-10-23T03:55:23.562Z,15.51
2022-10-23T04:00:27.932Z,15.69
2022-10-23T04:05:30.370Z,15.74
2022-10-23T04:10:34.117Z,15.87
2022-10-23T04:15:36.682Z,15.77
2022-10-23T04:20:39.152Z,15.76
2022-10-23T04:25:41.585Z,15.72
2022-10-23T04:30:44.210Z,15.33
2022-10-23T04:35:47.914Z,15.34
2022-10-23T04:40:50.271Z,15.09
2022-10-23T04:45:56.463Z,14.78
2022-10-23T04:51:02.158Z,14.39
2022-10-23T04:56:24.502Z,14.47
2022-10-23T05:01:36.106Z,14.36
2022-10-23T05:06:41.193Z,14.41
2022-10-23T05:12:06.481Z,14.37
2022-10-23T05:17:14.308Z,14.17
2022-10-23T05:22:18.786Z,14.36
2022-10-23T05:27:23.694Z,14.61
2022-10-23T05:32:31.640Z,14.70
2022-10-23T05:37:37.386Z,14.89
2022-10-23T05:42:54.995Z,15.23
2022-10-23T05:48:17.038Z,15.93
2022-10-23T05:53:56.065Z,16.32
2022-10-23T05:59:10.514Z,16.65
2022-10-23T06:04:30.388Z,16.40
2022-10-23T06:09:53.453Z,16.93
2022-10-23T06:14:56.886Z,17.07
2022-10-23T06:20:16.139Z,17.15
2022-10-23T06:25:33.354Z,17.20
2022-10-23T06:30:40.298Z,17.36
2022-10-23T06:35:46.127Z,18.26
2022-10-23T06:53:28.643Z,26.31
2022-10-23T06:58:45.223Z,26.21
2022-10-23T07:04:43.055Z,27.17
2022-10-23T07:09:53.102Z,29.68
2022-10-23T07:14:59.875Z,30.10
2022-10-23T07:20:02.532Z,30.58
2022-10-23T07:25:05.726Z,29.19
2022-10-23T07:30:13.946Z,28.43
2022-10-23T07:35:24.936Z,26.88
2022-10-23T07:40:38.773Z,26.88
2022-10-23T07:45:46.756Z,26.07
2022-10-23T07:51:04.180Z,26.35
2022-10-23T07:56:18.745Z,26.36
2022-10-23T08:01:56.862Z,24.40
2022-10-23T08:07:05.840Z,26.28
2022-10-23T08:12:15.471Z,25.79
2022-10-23T08:17:19.005Z,25.31
2022-10-23T08:22:37.475Z,25.98
2022-10-23T08:27:40.488Z,25.97
2022-10-23T08:32:43.161Z,26.40
2022-10-23T08:37:47.665Z,26.61
2022-10-23T08:43:22.169Z,25.90
2022-10-23T08:48:51.754Z,26.93
2022-10-23T08:54:55.892Z,24.20
2022-10-23T09:00:12.695Z,24.25
2022-10-23T09:05:25.467Z,25.41
2022-10-23T09:10:51.531Z,24.51
2022-10-23T09:16:03.972Z,24.99
2022-10-23T09:21:10.381Z,24.56
2022-10-23T09:26:18.495Z,24.88
2022-10-23T09:31:21.160Z,25.06
2022-10-23T09:36:29.479Z,24.21
2022-10-23T09:41:37.678Z,24.79
2022-10-23T09:52:08.683Z,25.06
2022-10-23T09:57:32.394Z,24.58
2022-10-23T10:02:36.892Z,24.51
2022-10-23T10:08:04.182Z,24.17
2022-10-23T10:13:34.822Z,25.00
2022-10-23T10:18:47.877Z,24.24
2022-10-23T10:24:12.836Z,23.53
2022-10-23T10:29:52.497Z,23.00
2022-10-23T10:35:19.516Z,23.59
2022-10-23T10:40:35.719Z,23.41
2022-10-23T10:45:52.783Z,22.81
2022-10-23T10:50:59.389Z,22.67
2022-10-23T10:56:19.374Z,22.70
2022-10-23T11:01:28.374Z,22.27
2022-10-23T11:06:36.473Z,22.38
2022-10-23T11:11:41.192Z,21.90
2022-10-23T11:17:10.462Z,22.21
2022-10-23T11:22:34.603Z,22.23
2022-10-23T11:27:42.993Z,22.07
2022-10-23T11:33:17.306Z,21.93
2022-10-23T11:38:30.240Z,21.41
2022-10-23T11:43:55.501Z,21.43
2022-10-23T11:48:58.791Z,21.45
2022-10-23T11:54:16.433Z,21.12
2022-10-23T11:59:29.534Z,21.19
2022-10-23T12:04:45.867Z,20.84
2022-10-23T12:10:01.669Z,20.94
2022-10-23T12:15:20.086Z,20.62
2022-10-23T12:20:39.524Z,20.68
2022-10-23T12:25:57.980Z,20.60
2022-10-23T12:31:31.664Z,20.63
2022-10-23T12:36:45.758Z,20.45
2022-10-23T12:41:48.098Z,20.22
2022-10-23T12:46:54.706Z,20.42
2022-10-23T12:52:04.784Z,20.44
2022-10-23T12:57:26.413Z,20.23
2022-10-23T13:02:33.155Z,20.26
2022-10-23T13:07:44.795Z,20.05
2022-10-23T13:13:02.983Z,20.10
2022-10-23T13:18:07.509Z,20.08
2022-10-23T13:23:33.132Z,20.00
2022-10-23T13:28:43.177Z,19.86
2022-10-23T13:34:09.975Z,19.83
2022-10-23T13:39:12.769Z,19.94
2022-10-23T13:44:17.460Z,19.93
2022-10-23T13:49:20.470Z,19.83
2022-10-23T13:59:30.386Z,19.38
2022-10-23T14:04:32.611Z,19.66
2022-10-23T14:09:34.750Z,19.40
2022-10-23T14:14:37.208Z,19.16
2022-10-23T14:19:39.567Z,19.23
2022-10-23T14:24:41.845Z,19.22
